Time;durP1;ratioP1;P1;durP2;ratioP2;P2;SDS_P1;SDS_P2;PMS_P1;PMS_P2;Temp;Humidity;BMP_temperature;BMP_pressure;BME280_temperature;BME280_humidity;BME280_pressure;Samples;Min_cycle;Max_cycle;Signal;HPM_P1;HPM_P2
2023/12/07 00:01:03;;;;;;;30.10;16.47;;;;;;;1.76;66.47;101506.38;4977828;28;96891;-53
2023/12/07 00:03:28;;;;;;;24.90;16.67;;;;;;;1.78;66.56;101505.97;4976726;28;97052;-53
2023/12/07 00:05:54;;;;;;;27.77;16.60;;;;;;;1.78;66.46;101514.16;4980060;28;96843;-53
2023/12/07 00:08:19;;;;;;;29.50;16.20;;;;;;;1.78;66.38;101511.44;4982419;28;97045;-54
2023/12/07 00:10:45;;;;;;;23.60;15.00;;;;;;;1.78;66.56;101505.97;4978963;28;97430;-54
2023/12/07 00:13:10;;;;;;;22.80;14.90;;;;;;;1.78;66.45;101505.97;4981659;28;98688;-54
2023/12/07 00:15:36;;;;;;;23.57;15.97;;;;;;;1.79;66.50;101508.25;4978515;28;97245;-53
2023/12/07 00:18:03;;;;;;;25.40;15.70;;;;;;;1.80;66.53;101509.03;4982220;28;96865;-53
2023/12/07 00:20:29;;;;;;;26.67;15.00;;;;;;;1.80;66.52;101515.25;4980757;28;97640;-53
2023/12/07 00:22:55;;;;;;;23.57;16.20;;;;;;;1.81;66.30;101518.72;4981149;28;98024;-53
2023/12/07 00:25:20;;;;;;;23.60;14.90;;;;;;;1.80;66.24;101526.16;4978518;28;96972;-53
2023/12/07 00:27:45;;;;;;;24.83;15.37;;;;;;;1.81;66.75;101519.50;4977644;28;97061;-53
2023/12/07 00:30:12;;;;;;;25.17;15.30;;;;;;;1.83;66.66;101525.28;4980195;28;97085;-54
2023/12/07 00:32:37;;;;;;;23.90;15.17;;;;;;;1.85;66.50;101515.91;4980907;28;98858;-54
2023/12/07 00:35:03;;;;;;;28.73;16.10;;;;;;;1.86;66.42;101520.16;4980567;28;97750;-53
2023/12/07 00:37:28;;;;;;;21.83;15.47;;;;;;;1.86;66.62;101520.16;4981312;28;96682;-53
2023/12/07 00:39:54;;;;;;;24.73;16.20;;;;;;;1.86;66.67;101531.84;4983485;28;97004;-53
2023/12/07 00:42:19;;;;;;;26.43;16.30;;;;;;;1.88;66.34;101537.63;4981682;28;107811;-53
2023/12/07 00:44:44;;;;;;;26.00;15.07;;;;;;;1.90;66.14;101539.91;4997392;28;108786;-53
2023/12/07 00:47:10;;;;;;;26.67;15.77;;;;;;;1.88;66.30;101547.75;4979413;28;97184;-53
2023/12/07 00:49:42;;;;;;;22.07;14.77;;;;;;;1.89;66.39;101532.94;4982043;28;96815;-54
2023/12/07 00:52:08;;;;;;;23.97;15.90;;;;;;;1.90;66.56;101529.00;4983209;28;96999;-53
2023/12/07 00:54:33;;;;;;;26.57;15.30;;;;;;;1.91;66.22;101530.53;4981251;28;97170;-54
2023/12/07 00:56:59;;;;;;;22.07;14.40;;;;;;;1.90;66.38;101535.22;4980545;28;97051;-54
2023/12/07 00:59:24;;;;;;;22.57;14.87;;;;;;;1.91;66.47;101536.78;4982008;28;96754;-54
2023/12/07 01:01:50;;;;;;;23.60;15.30;;;;;;;1.88;66.60;101562.19;4978560;28;97671;-54
2023/12/07 01:04:16;;;;;;;20.07;13.87;;;;;;;1.92;66.18;101543.75;4980703;28;97243;-54
2023/12/07 01:06:41;;;;;;;20.77;14.27;;;;;;;1.91;66.44;101552.38;4982321;28;97213;-53
2023/12/07 01:09:06;;;;;;;20.90;13.80;;;;;;;1.91;66.38;101547.69;4979753;28;96906;-54
2023/12/07 01:11:32;;;;;;;24.87;15.57;;;;;;;1.92;66.36;101553.91;4979831;28;96910;-53
2023/12/07 01:13:57;;;;;;;24.27;15.53;;;;;;;1.93;66.40;101550.75;4979710;28;98535;-53
2023/12/07 01:16:22;;;;;;;20.13;14.10;;;;;;;1.95;66.73;101555.75;4979043;28;101379;-54
2023/12/07 01:18:48;;;;;;;21.20;13.70;;;;;;;1.95;66.33;101561.97;4981605;28;96866;-53
2023/12/07 01:21:13;;;;;;;22.07;14.20;;;;;;;1.97;66.11;101564.25;4980017;28;111720;-54
2023/12/07 01:23:38;;;;;;;25.73;14.70;;;;;;;1.96;66.27;101566.22;4981624;28;98936;-53
2023/12/07 01:26:03;;;;;;;21.90;14.50;;;;;;;1.96;66.42;101565.47;4980077;28;98030;-54
2023/12/07 01:28:29;;;;;;;22.63;15.37;;;;;;;1.96;66.26;101571.69;4981870;28;97963;-54
2023/12/07 01:30:54;;;;;;;22.00;14.73;;;;;;;1.96;66.15;101571.69;4979320;28;97769;-54
2023/12/07 01:33:20;;;;;;;21.53;14.70;;;;;;;1.97;66.33;101575.19;4979961;28;100486;-53
2023/12/07 01:35:45;;;;;;;23.40;15.20;;;;;;;1.98;66.43;101585.69;4981325;28;97072;-54
2023/12/07 01:38:12;;;;;;;21.77;15.20;;;;;;;1.96;66.17;101579.88;4979248;28;98030;-53
2023/12/07 01:40:37;;;;;;;20.10;14.47;;;;;;;1.98;66.27;101593.88;4979802;28;97432;-54
2023/12/07 01:43:03;;;;;;;22.67;14.77;;;;;;;1.98;66.35;101593.09;4980675;28;97539;-54
2023/12/07 01:45:28;;;;;;;22.90;16.90;;;;;;;1.98;66.12;101593.88;4979088;28;97072;-54
2023/12/07 01:47:54;;;;;;;18.60;14.40;;;;;;;1.98;66.53;101585.69;4982140;28;97317;-53
2023/12/07 01:50:24;;;;;;;19.93;14.30;;;;;;;1.98;66.41;101593.88;4980616;28;97134;-54
2023/12/07 01:52:54;;;;;;;22.23;14.30;;;;;;;1.96;66.56;101593.50;4978752;28;96798;-53
2023/12/07 01:55:20;;;;;;;23.30;15.47;;;;;;;1.97;66.45;101599.75;4976742;28;96966;-54
2023/12/07 01:57:46;;;;;;;21.33;15.03;;;;;;;1.96;66.42;101592.78;4983267;28;97274;-54
2023/12/07 02:00:13;;;;;;;21.50;15.17;;;;;;;1.95;66.35;101594.72;4979568;28;97192;-53
2023/12/07 02:02:39;;;;;;;21.87;15.17;;;;;;;1.98;66.54;101601.28;4978726;28;97227;-53
2023/12/07 02:05:05;;;;;;;22.83;14.73;;;;;;;1.98;66.43;101599.31;4978872;28;97109;-54
2023/12/07 02:07:31;;;;;;;21.73;15.20;;;;;;;1.98;66.37;101599.31;4980708;28;97056;-54
2023/12/07 02:09:58;;;;;;;22.33;15.67;;;;;;;1.98;66.35;101599.31;4978278;28;96683;-54
2023/12/07 02:12:24;;;;;;;19.90;15.07;;;;;;;1.98;66.43;101593.88;4978898;28;97690;-54
2023/12/07 02:14:51;;;;;;;23.43;15.67;;;;;;;1.98;66.48;101601.28;4981156;28;97360;-54
2023/12/07 02:17:36;;;;;;;23.03;15.30;;;;;;;1.99;66.39;101602.78;4979420;28;97136;-54
2023/12/07 02:20:25;;;;;;;23.47;16.20;;;;;;;1.99;66.46;101614.50;4979265;28;97536;-53
2023/12/07 02:22:55;;;;;;;21.53;15.13;;;;;;;1.99;66.25;101611.00;4978782;28;97345;-53
2023/12/07 02:25:26;;;;;;;24.50;14.60;;;;;;;1.99;66.51;101611.75;4981004;28;97038;-53
2023/12/07 02:27:51;;;;;;;19.50;14.23;;;;;;;1.97;66.48;101616.88;4976779;28;96768;-54
2023/12/07 02:30:17;;;;;;;22.07;15.43;;;;;;;1.95;66.56;101605.63;4979683;28;97462;-54
2023/12/07 02:32:44;;;;;;;21.47;15.37;;;;;;;1.96;66.51;101611.88;4979453;28;97156;-53
2023/12/07 02:35:14;;;;;;;23.83;16.50;;;;;;;1.98;66.41;101607.50;4996647;28;96800;-53
2023/12/07 02:37:45;;;;;;;28.17;16.13;;;;;;;1.97;66.53;101602.47;4981831;28;97396;-54
2023/12/07 02:40:14;;;;;;;23.77;15.30;;;;;;;1.98;66.23;101610.25;4978508;28;99878;-53
2023/12/07 02:42:42;;;;;;;25.17;14.60;;;;;;;1.96;66.44;101609.88;4976984;28;97908;-53
2023/12/07 02:45:09;;;;;;;19.67;14.67;;;;;;;1.95;66.53;101613.06;4978452;28;96921;-54
2023/12/07 02:47:34;;;;;;;20.27;14.40;;;;;;;1.94;66.34;101623.19;4981049;28;97034;-53
2023/12/07 02:50:00;;;;;;;20.30;13.77;;;;;;;1.94;66.47;101609.56;4978960;28;97379;-53
2023/12/07 02:52:25;;;;;;;23.20;13.20;;;;;;;1.93;66.31;101613.50;4980151;28;97093;-53
2023/12/07 02:54:51;;;;;;;24.50;14.30;;;;;;;1.93;66.61;101613.50;4977584;28;96819;-53
2023/12/07 02:57:16;;;;;;;20.63;14.60;;;;;;;1.93;66.21;101607.28;4978440;28;97648;-54
2023/12/07 02:59:42;;;;;;;22.77;14.17;;;;;;;1.93;66.36;101616.22;4979452;28;97457;-54
2023/12/07 03:02:08;;;;;;;21.17;14.00;;;;;;;1.93;66.18;101620.91;4977860;28;97179;-54
2023/12/07 03:04:33;;;;;;;22.47;14.37;;;;;;;1.92;66.40;101624.84;4979124;28;97068;-53
2023/12/07 03:06:59;;;;;;;26.30;14.37;;;;;;;1.93;66.26;101626.38;4976500;28;97913;-53
2023/12/07 03:09:24;;;;;;;20.63;14.70;;;;;;;1.92;66.06;101636.50;4979555;28;97276;-53
2023/12/07 03:11:50;;;;;;;21.27;12.97;;;;;;;1.93;66.46;101629.88;4981012;28;97162;-54
2023/12/07 03:14:15;;;;;;;21.77;14.10;;;;;;;1.92;66.58;101633.78;4978149;28;97011;-54
2023/12/07 03:16:41;;;;;;;18.97;12.17;;;;;;;1.92;66.36;101633.78;4977189;28;97037;-54
2023/12/07 03:19:06;;;;;;;21.63;12.60;;;;;;;1.92;66.59;101646.69;4975162;28;97878;-54
2023/12/07 03:21:31;;;;;;;22.87;13.20;;;;;;;1.89;66.13;101628.44;4977792;28;107571;-54
2023/12/07 03:23:57;;;;;;;27.53;13.63;;;;;;;1.87;66.17;101628.88;4976021;28;96683;-53
2023/12/07 03:26:22;;;;;;;16.40;12.07;;;;;;;1.86;66.42;101630.06;4979217;28;97120;-54
2023/12/07 03:28:47;;;;;;;19.30;13.50;;;;;;;1.86;66.48;101632.78;4980780;28;106374;-54
2023/12/07 03:31:12;;;;;;;19.23;13.17;;;;;;;1.87;66.32;101631.59;4978724;28;100998;-54
2023/12/07 03:33:38;;;;;;;19.20;12.33;;;;;;;1.87;66.35;101633.56;4979487;28;96708;-54
2023/12/07 03:36:04;;;;;;;18.37;12.53;;;;;;;1.86;66.62;101640.97;4978881;28;96666;-54
2023/12/07 03:38:29;;;;;;;17.57;12.97;;;;;;;1.87;66.36;101639.78;4979507;28;97498;-54
2023/12/07 03:40:54;;;;;;;19.67;12.27;;;;;;;1.86;66.38;101621.88;4977182;28;97389;-54
2023/12/07 03:43:20;;;;;;;23.83;12.40;;;;;;;1.83;66.41;101634.41;4975991;28;97314;-54
2023/12/07 03:45:46;;;;;;;20.87;13.50;;;;;;;1.83;66.30;101630.91;4978900;28;96687;-54
2023/12/07 03:48:12;;;;;;;20.60;12.90;;;;;;;1.83;66.24;101641.84;4975930;28;97479;-54
2023/12/07 03:50:37;;;;;;;19.13;12.93;;;;;;;1.83;66.63;101633.66;4977157;28;96683;-54
2023/12/07 03:53:02;;;;;;;19.70;12.40;;;;;;;1.83;66.38;101639.88;4981785;28;97096;-54
2023/12/07 03:55:28;;;;;;;19.03;12.63;;;;;;;1.84;66.37;101640.66;4976836;28;96856;-55
2023/12/07 03:57:53;;;;;;;17.67;11.77;;;;;;;1.85;66.29;101653.09;4977122;28;109785;-54
2023/12/07 04:00:18;;;;;;;17.73;12.17;;;;;;;1.82;66.50;101653.97;4975276;28;112174;-54
2023/12/07 04:02:44;;;;;;;19.20;12.67;;;;;;;1.82;66.46;101656.69;4976710;28;96637;-54
2023/12/07 04:05:09;;;;;;;21.73;12.77;;;;;;;1.83;66.31;101655.47;4977468;28;97057;-54
2023/12/07 04:07:34;;;;;;;19.30;13.00;;;;;;;1.82;66.20;101664.88;4978026;28;100492;-54
2023/12/07 04:10:00;;;;;;;17.20;12.20;;;;;;;1.81;66.45;101657.88;4976782;28;97221;-54
2023/12/07 04:12:25;;;;;;;19.50;12.40;;;;;;;1.80;66.51;101648.94;4977856;28;96793;-54
2023/12/07 04:14:51;;;;;;;16.43;11.57;;;;;;;1.81;66.56;101655.91;4976631;28;97106;-54
2023/12/07 04:17:17;;;;;;;18.43;12.30;;;;;;;1.81;66.37;101655.13;4979865;28;98528;-54
2023/12/07 04:19:42;;;;;;;16.90;11.50;;;;;;;1.81;66.26;101660.59;4976197;28;97619;-54
2023/12/07 04:22:08;;;;;;;16.17;12.00;;;;;;;1.79;65.94;101666.50;4978355;28;97005;-54
2023/12/07 04:24:33;;;;;;;17.97;12.40;;;;;;;1.79;66.41;101666.50;4975296;28;100141;-54
2023/12/07 04:26:58;;;;;;;16.50;12.27;;;;;;;1.79;66.45;101666.50;4977176;28;97416;-54
2023/12/07 04:29:23;;;;;;;17.07;12.10;;;;;;;1.80;66.08;101670.75;4977639;28;110204;-54
2023/12/07 04:31:49;;;;;;;18.40;12.00;;;;;;;1.80;66.27;101678.19;4975246;28;97318;-54
2023/12/07 04:34:14;;;;;;;19.37;12.30;;;;;;;1.80;66.18;101681.69;4977136;28;97964;-54
2023/12/07 04:36:39;;;;;;;18.23;12.90;;;;;;;1.81;66.39;101671.50;4975783;28;97849;-54
2023/12/07 04:39:05;;;;;;;19.27;13.20;;;;;;;1.80;66.53;101678.94;4975577;28;98365;-54
2023/12/07 04:41:30;;;;;;;17.10;13.03;;;;;;;1.81;66.50;101674.22;4980926;28;97079;-54
2023/12/07 04:43:55;;;;;;;17.40;12.87;;;;;;;1.82;66.49;101670.31;4974987;28;97450;-54
2023/12/07 04:46:21;;;;;;;19.03;13.27;;;;;;;1.81;66.39;101671.50;4973247;28;103500;-54
2023/12/07 04:48:46;;;;;;;20.63;13.03;;;;;;;1.82;66.33;101670.31;4979011;28;97452;-54
2023/12/07 04:51:11;;;;;;;16.87;12.57;;;;;;;1.83;66.42;101671.84;4976760;28;97093;-54
2023/12/07 04:53:37;;;;;;;17.83;13.20;;;;;;;1.82;66.40;101681.25;4978997;28;98030;-54
2023/12/07 04:56:02;;;;;;;18.60;13.00;;;;;;;1.83;66.30;101674.56;4976657;28;97900;-54
2023/12/07 04:58:27;;;;;;;19.80;12.83;;;;;;;1.83;66.39;101671.84;4978907;28;97266;-54
2023/12/07 05:00:53;;;;;;;18.87;12.77;;;;;;;1.82;66.46;101667.59;4977903;28;98374;-54
2023/12/07 05:03:18;;;;;;;20.27;13.13;;;;;;;1.83;66.70;101669.09;4978204;28;97091;-54
2023/12/07 05:05:43;;;;;;;16.93;12.70;;;;;;;1.82;66.23;101662.91;4982082;28;97950;-54
2023/12/07 05:08:09;;;;;;;16.23;12.23;;;;;;;1.81;66.29;101666.06;4983300;28;97977;-54
2023/12/07 05:10:34;;;;;;;17.13;12.30;;;;;;;1.81;66.38;101666.81;4980049;28;97802;-55
2023/12/07 05:12:59;;;;;;;18.87;12.97;;;;;;;1.82;66.16;101657.47;4995516;28;97371;-54
2023/12/07 05:15:25;;;;;;;15.93;11.87;;;;;;;1.82;66.37;101665.63;4979267;28;97469;-55
2023/12/07 05:17:50;;;;;;;15.83;10.93;;;;;;;1.81;66.23;101661.38;4978832;28;97571;-55
2023/12/07 05:20:16;;;;;;;16.73;11.90;;;;;;;1.82;66.22;101676.56;4980280;28;97148;-54
2023/12/07 05:22:41;;;;;;;16.47;11.50;;;;;;;1.82;66.05;101675.78;4980757;28;97457;-54
2023/12/07 05:25:07;;;;;;;17.50;11.97;;;;;;;1.80;66.26;101668.03;4981922;28;97371;-54
2023/12/07 05:27:32;;;;;;;17.40;11.87;;;;;;;1.81;66.13;101671.50;4984615;28;97730;-54
2023/12/07 05:29:57;;;;;;;17.03;11.37;;;;;;;1.79;66.51;101671.94;4978424;28;97219;-54
2023/12/07 05:32:22;;;;;;;16.90;11.23;;;;;;;1.79;66.45;101673.91;4980231;28;102531;-54
2023/12/07 05:34:48;;;;;;;20.90;11.00;;;;;;;1.79;66.06;101674.69;4976932;28;107667;-54
2023/12/07 05:37:13;;;;;;;15.50;11.60;;;;;;;1.78;66.26;101670.44;4980368;28;97579;-54
2023/12/07 05:39:38;;;;;;;18.13;12.57;;;;;;;1.78;66.24;101675.13;4981231;28;97085;-54
2023/12/07 05:42:04;;;;;;;15.70;11.30;;;;;;;1.79;66.05;101674.69;4978967;28;96762;-54
2023/12/07 05:44:30;;;;;;;16.13;11.83;;;;;;;1.75;66.28;101665.81;4978731;28;97820;-54
2023/12/07 05:46:57;;;;;;;20.80;13.00;;;;;;;1.78;66.56;101678.63;4982457;28;97208;-54
2023/12/07 05:49:23;;;;;;;15.70;11.20;;;;;;;1.77;66.12;101682.53;4980173;28;96772;-54
2023/12/07 05:51:48;;;;;;;20.80;13.00;;;;;;;1.76;66.11;101678.25;4980323;28;97263;-54
2023/12/07 05:54:14;;;;;;;14.97;11.50;;;;;;;1.75;66.26;101681.41;4979260;28;97279;-55
2023/12/07 05:56:40;;;;;;;17.87;12.40;;;;;;;1.75;66.27;101687.66;4978867;28;97955;-54
2023/12/07 05:59:06;;;;;;;16.47;11.30;;;;;;;1.74;65.97;101679.91;4981301;28;97118;-55
2023/12/07 06:01:31;;;;;;;16.30;12.17;;;;;;;1.72;66.25;101676.84;4979658;28;97087;-54
2023/12/07 06:03:57;;;;;;;18.77;12.80;;;;;;;1.72;66.10;101683.03;4978669;28;97286;-54
2023/12/07 06:06:23;;;;;;;16.80;12.07;;;;;;;1.71;66.30;101675.31;4978324;28;97266;-54
2023/12/07 06:08:48;;;;;;;21.33;11.40;;;;;;;1.68;66.21;101681.59;4978131;28;96930;-54
2023/12/07 06:11:13;;;;;;;15.83;11.60;;;;;;;1.67;66.39;101686.31;4979862;28;96938;-54
2023/12/07 06:13:39;;;;;;;16.17;11.57;;;;;;;1.67;66.37;101682.81;4981234;28;97362;-54
2023/12/07 06:16:04;;;;;;;20.60;13.00;;;;;;;1.66;66.32;101684.00;4979632;28;101601;-54
2023/12/07 06:18:30;;;;;;;17.53;12.50;;;;;;;1.63;66.14;101684.88;4980807;28;96825;-54
2023/12/07 06:20:55;;;;;;;21.27;11.87;;;;;;;1.62;66.24;101691.50;4980355;28;97157;-54
2023/12/07 06:23:21;;;;;;;16.70;11.70;;;;;;;1.60;66.10;101696.63;4976746;28;97267;-54
2023/12/07 06:25:46;;;;;;;24.40;13.40;;;;;;;1.60;66.16;101693.91;4978201;28;97399;-54
2023/12/07 06:28:12;;;;;;;18.77;12.80;;;;;;;1.58;66.29;101699.03;4980009;28;96999;-54
2023/12/07 06:30:38;;;;;;;16.17;11.97;;;;;;;1.54;66.30;101698.34;4980405;28;98349;-55
2023/12/07 06:33:03;;;;;;;16.60;11.60;;;;;;;1.53;66.39;101704.97;4982484;28;100366;-54
2023/12/07 06:35:29;;;;;;;18.10;12.27;;;;;;;1.55;66.46;101706.09;4979121;28;97494;-54
2023/12/07 06:37:54;;;;;;;18.43;12.17;;;;;;;1.56;66.44;101704.13;4978934;28;97220;-54
2023/12/07 06:40:20;;;;;;;17.80;11.90;;;;;;;1.56;66.47;101707.63;4977575;28;97364;-54
2023/12/07 06:42:45;;;;;;;18.17;12.13;;;;;;;1.59;66.57;101706.75;4979405;28;99269;-54
2023/12/07 06:45:14;;;;;;;15.37;11.00;;;;;;;1.62;66.46;101713.31;4978733;28;97136;-55
2023/12/07 06:47:39;;;;;;;18.37;12.70;;;;;;;1.64;66.82;101714.44;4974977;28;96624;-55
2023/12/07 06:50:08;;;;;;;18.93;12.73;;;;;;;1.66;66.45;101730.38;4981749;28;97287;-54
2023/12/07 06:52:34;;;;;;;18.60;12.50;;;;;;;1.71;66.57;101727.13;4980893;28;97361;-54
2023/12/07 06:54:59;;;;;;;23.43;12.83;;;;;;;1.69;66.57;101733.03;4977076;28;97279;-54
2023/12/07 06:57:25;;;;;;;16.30;12.03;;;;;;;1.71;66.66;101724.41;4981299;28;97047;-54
2023/12/07 06:59:50;;;;;;;18.60;11.93;;;;;;;1.71;66.63;101730.63;4976987;28;97143;-54
2023/12/07 07:02:15;;;;;;;18.83;13.00;;;;;;;1.74;66.53;101734.47;4980187;28;97716;-54
2023/12/07 07:04:41;;;;;;;17.10;12.40;;;;;;;1.74;66.75;101731.75;4978295;28;99255;-54
2023/12/07 07:07:06;;;;;;;14.23;10.30;;;;;;;1.74;66.66;101723.56;4979727;28;98173;-54
2023/12/07 07:09:31;;;;;;;17.87;11.20;;;;;;;1.75;66.68;101730.53;4983126;28;97262;-54
2023/12/07 07:11:57;;;;;;;14.97;10.27;;;;;;;1.74;66.69;101731.75;4976628;28;96873;-54
2023/12/07 07:14:22;;;;;;;17.70;10.80;;;;;;;1.74;66.50;101729.00;4977514;28;112852;-54
2023/12/07 07:16:47;;;;;;;18.17;11.40;;;;;;;1.73;66.15;101732.91;4978055;28;97428;-54
2023/12/07 07:19:13;;;;;;;18.37;12.07;;;;;;;1.73;66.45;101736.41;4978254;28;97426;-54
2023/12/07 07:21:39;;;;;;;18.70;10.07;;;;;;;1.73;66.46;101735.66;4977834;28;96974;-54
2023/12/07 07:24:04;;;;;;;18.20;11.20;;;;;;;1.72;66.33;101731.41;4977655;28;96698;-54
2023/12/07 07:26:29;;;;;;;15.67;11.30;;;;;;;1.72;66.57;101734.88;4977333;28;97239;-54
2023/12/07 07:28:55;;;;;;;19.30;11.70;;;;;;;1.71;66.09;101730.63;4980290;28;98984;-54
2023/12/07 07:31:20;;;;;;;16.50;10.93;;;;;;;1.71;66.53;101740.75;4979217;28;97239;-54
2023/12/07 07:33:49;;;;;;;18.40;10.27;;;;;;;1.71;66.39;101732.59;4977431;28;97022;-54
2023/12/07 07:36:16;;;;;;;16.40;10.60;;;;;;;1.71;66.38;101738.03;4976134;28;96918;-55
2023/12/07 07:38:43;;;;;;;18.67;11.63;;;;;;;1.71;66.31;101733.34;4980874;28;97098;-54
2023/12/07 07:41:09;;;;;;;16.87;10.20;;;;;;;1.71;66.05;101741.53;4975752;28;97576;-54
2023/12/07 07:43:35;;;;;;;16.00;10.70;;;;;;;1.73;66.38;101741.09;4976643;28;97431;-54
2023/12/07 07:46:00;;;;;;;23.90;10.70;;;;;;;1.73;66.66;101760.97;4978219;28;101023;-54
2023/12/07 07:48:26;;;;;;;15.27;10.87;;;;;;;1.73;66.25;101752.00;4977347;28;96684;-54
2023/12/07 07:50:51;;;;;;;16.67;11.43;;;;;;;1.74;66.52;101751.56;4975921;28;97075;-54
2023/12/07 07:53:17;;;;;;;17.33;10.40;;;;;;;1.75;66.24;101746.91;4976222;28;96717;-54
2023/12/07 07:55:42;;;;;;;16.60;10.87;;;;;;;1.75;66.50;101747.66;4974350;28;96797;-54
2023/12/07 07:58:08;;;;;;;15.50;10.77;;;;;;;1.75;66.53;101744.94;4978778;28;97169;-54
2023/12/07 08:00:34;;;;;;;18.27;12.17;;;;;;;1.75;66.30;101755.84;4978435;28;97535;-54
2023/12/07 08:03:00;;;;;;;17.27;11.80;;;;;;;1.77;66.17;101749.97;4975749;28;97075;-54
2023/12/07 08:05:25;;;;;;;16.67;11.10;;;;;;;1.79;66.18;101750.28;4976115;28;97065;-54
2023/12/07 08:07:51;;;;;;;17.20;12.10;;;;;;;1.80;66.30;101751.84;4978067;28;96921;-54
2023/12/07 08:10:17;;;;;;;22.03;12.57;;;;;;;1.79;66.42;101756.53;4976140;28;97225;-54
2023/12/07 08:12:42;;;;;;;17.87;11.77;;;;;;;1.75;66.19;101769.50;4976426;28;98608;-54
2023/12/07 08:15:10;;;;;;;15.60;11.30;;;;;;;1.77;66.63;101764.38;4976605;28;97023;-54
2023/12/07 08:17:40;;;;;;;16.73;11.10;;;;;;;1.77;66.42;101769.06;4976728;28;97543;-54
2023/12/07 08:20:07;;;;;;;19.83;12.37;;;;;;;1.78;66.61;101767.88;4980325;28;98490;-54
2023/12/07 08:22:32;;;;;;;16.73;11.60;;;;;;;1.79;66.40;101761.97;4977717;28;99097;-54
2023/12/07 08:24:58;;;;;;;20.10;11.30;;;;;;;1.81;66.21;101767.00;4976580;28;97133;-54
2023/12/07 08:27:23;;;;;;;24.03;11.97;;;;;;;1.84;66.66;101777.06;4978030;28;97041;-54
2023/12/07 08:29:48;;;;;;;18.57;10.90;;;;;;;1.88;66.22;101766.06;4978617;28;105647;-54
2023/12/07 08:32:15;;;;;;;18.90;11.50;;;;;;;1.90;66.11;101766.38;4978748;28;107961;-54
2023/12/07 08:34:40;;;;;;;16.07;11.00;;;;;;;1.93;66.18;101765.53;4979467;28;96743;-54
2023/12/07 08:37:06;;;;;;;18.03;11.83;;;;;;;1.95;66.57;101768.59;4980669;28;96874;-54
2023/12/07 08:39:31;;;;;;;16.63;11.63;;;;;;;1.97;66.24;101769.72;4978183;28;111019;-54
2023/12/07 08:41:56;;;;;;;19.77;12.33;;;;;;;2.00;66.49;101768.09;4979096;28;104717;-54
2023/12/07 08:44:22;;;;;;;20.77;13.10;;;;;;;2.01;66.24;101775.06;4978837;28;100970;-55
2023/12/07 08:46:47;;;;;;;21.30;12.67;;;;;;;2.01;66.60;101770.38;4979462;28;97221;-54
2023/12/07 08:49:13;;;;;;;19.20;13.17;;;;;;;2.01;66.48;101770.38;4979854;28;97106;-54
2023/12/07 08:51:38;;;;;;;18.37;12.07;;;;;;;2.03;66.66;101768.00;4978411;28;97268;-54
2023/12/07 08:54:05;;;;;;;20.17;13.77;;;;;;;2.05;66.41;101768.31;4981498;28;96746;-54
2023/12/07 08:56:30;;;;;;;20.70;13.17;;;;;;;2.08;66.70;101763.97;4980463;28;96904;-54
2023/12/07 08:58:55;;;;;;;20.40;13.10;;;;;;;2.10;66.53;101773.25;4978784;28;97035;-54
2023/12/07 09:01:21;;;;;;;21.60;13.27;;;;;;;2.12;66.73;101779.06;4979779;28;97635;-54
2023/12/07 09:03:46;;;;;;;19.47;13.17;;;;;;;2.11;66.61;101783.00;4982824;28;96996;-54
2023/12/07 09:06:11;;;;;;;21.87;12.30;;;;;;;2.12;66.69;101775.56;4980252;28;98634;-54
2023/12/07 09:08:37;;;;;;;18.23;12.50;;;;;;;2.14;66.74;101801.22;4982362;28;98268;-54
2023/12/07 09:11:03;;;;;;;18.97;13.13;;;;;;;2.16;66.52;101781.69;4983968;28;97332;-54
2023/12/07 09:13:29;;;;;;;31.33;12.93;;;;;;;2.17;66.53;101783.22;4983187;28;96688;-54
2023/12/07 09:15:54;;;;;;;23.17;12.57;;;;;;;2.18;66.51;101788.25;4983541;28;97141;-54
2023/12/07 09:18:19;;;;;;;17.50;12.20;;;;;;;2.20;66.60;101785.09;4982879;28;97338;-53
2023/12/07 09:20:47;;;;;;;19.10;13.10;;;;;;;2.22;66.66;101791.66;4979048;28;106584;-53
2023/12/07 09:23:14;;;;;;;16.67;11.20;;;;;;;2.26;66.25;101800.53;4982229;28;97036;-53
2023/12/07 09:25:40;;;;;;;18.60;12.70;;;;;;;2.27;66.52;101796.59;4983317;28;97205;-53
2023/12/07 09:28:06;;;;;;;21.27;13.00;;;;;;;2.30;66.88;101795.75;4981597;28;97184;-53
2023/12/07 09:30:33;;;;;;;19.17;12.80;;;;;;;2.31;66.54;101797.25;4979511;28;97132;-53
2023/12/07 09:32:59;;;;;;;18.10;13.10;;;;;;;2.34;66.44;101812.81;4980973;28;96705;-53
2023/12/07 09:35:24;;;;;;;21.27;13.30;;;;;;;2.36;66.77;101804.97;4979836;28;96957;-53
2023/12/07 09:37:49;;;;;;;19.33;13.30;;;;;;;2.36;66.80;101812.38;4976666;28;112140;-53
2023/12/07 09:40:19;;;;;;;18.03;12.40;;;;;;;2.37;66.45;101809.25;4982249;28;97395;-53
2023/12/07 09:42:45;;;;;;;18.70;13.00;;;;;;;2.38;66.46;101810.75;4981197;28;97163;-53
2023/12/07 09:45:11;;;;;;;17.90;12.70;;;;;;;2.39;66.46;101812.31;4982953;28;96740;-53
2023/12/07 09:47:38;;;;;;;18.80;12.77;;;;;;;2.42;66.58;101805.19;4980700;28;102432;-53
2023/12/07 09:50:05;;;;;;;25.63;13.10;;;;;;;2.44;66.52;101809.03;4982557;28;96694;-53
2023/12/07 09:52:31;;;;;;;18.70;12.47;;;;;;;2.45;66.76;101810.56;4980947;28;96751;-53
2023/12/07 09:54:57;;;;;;;16.87;12.40;;;;;;;2.49;66.93;101813.19;4980259;28;97207;-53
2023/12/07 09:57:22;;;;;;;16.30;11.63;;;;;;;2.49;66.85;101807.72;4981807;28;98652;-53
2023/12/07 09:59:48;;;;;;;17.70;12.37;;;;;;;2.50;66.74;101799.13;4979306;28;97147;-54
2023/12/07 10:02:14;;;;;;;19.93;11.97;;;;;;;2.51;66.66;101803.38;4982459;28;97051;-53
2023/12/07 10:04:39;;;;;;;20.57;12.90;;;;;;;2.52;66.68;101793.22;4982980;28;96760;-53
2023/12/07 10:07:08;;;;;;;15.97;11.27;;;;;;;2.53;66.36;101792.78;4982251;28;97263;-53
2023/12/07 10:09:34;;;;;;;16.00;11.80;;;;;;;2.57;66.71;101789.19;4975797;28;98374;-53
2023/12/07 10:12:04;;;;;;;27.73;12.63;;;;;;;2.60;66.49;101793.78;4979290;28;97248;-53
2023/12/07 10:14:29;;;;;;;16.47;11.77;;;;;;;2.62;66.73;101783.19;4982005;28;97086;-55
2023/12/07 10:16:56;;;;;;;19.20;11.20;;;;;;;2.63;66.66;101785.50;4978211;28;97852;-53
2023/12/07 10:19:22;;;;;;;15.37;10.87;;;;;;;2.67;67.03;101790.84;4976723;28;97041;-54
2023/12/07 10:21:49;;;;;;;16.40;11.23;;;;;;;2.69;66.69;101786.47;4979966;28;97280;-53
2023/12/07 10:24:16;;;;;;;17.23;11.50;;;;;;;2.73;66.82;101800.03;4980042;28;97168;-54
2023/12/07 10:26:43;;;;;;;20.00;11.57;;;;;;;2.74;66.77;101785.97;4978867;28;97455;-53
2023/12/07 10:29:09;;;;;;;14.70;10.00;;;;;;;2.77;66.50;101801.47;4979399;28;97420;-53
2023/12/07 10:31:36;;;;;;;22.80;12.00;;;;;;;2.79;66.76;101793.59;4980740;28;97732;-52
2023/12/07 10:34:02;;;;;;;15.30;10.37;;;;;;;2.82;66.57;101797.44;4984337;28;97183;-53
2023/12/07 10:36:28;;;;;;;14.93;10.37;;;;;;;2.85;66.61;101788.38;4978250;28;96705;-53
2023/12/07 10:38:53;;;;;;;18.63;11.90;;;;;;;2.87;67.00;101788.72;4975149;28;97337;-53
2023/12/07 10:41:21;;;;;;;18.10;11.83;;;;;;;2.91;66.66;101794.81;4977410;28;96728;-53
2023/12/07 10:44:08;;;;;;;20.33;12.70;;;;;;;2.95;66.63;101792.75;4997431;28;97379;-53
2023/12/07 10:46:34;;;;;;;17.90;12.30;;;;;;;2.95;66.46;101790.00;4977574;28;97999;-53
2023/12/07 10:49:03;;;;;;;20.07;11.67;;;;;;;2.99;66.72;101782.47;4982234;28;97901;-53
2023/12/07 10:51:31;;;;;;;16.00;11.97;;;;;;;3.02;67.00;101776.16;4977238;28;97038;-53
2023/12/07 10:53:58;;;;;;;20.70;12.87;;;;;;;3.05;66.74;101775.28;4978988;28;97075;-53
2023/12/07 10:56:40;;;;;;;20.30;12.10;;;;;;;3.07;67.04;101781.06;4976799;28;96880;-53
2023/12/07 10:59:07;;;;;;;19.50;12.40;;;;;;;3.12;66.65;101777.78;4980083;28;98508;-53
2023/12/07 11:01:34;;;;;;;20.30;13.70;;;;;;;3.15;66.72;101774.94;4976440;28;96745;-55
2023/12/07 11:04:01;;;;;;;18.00;12.50;;;;;;;3.18;66.76;101776.06;4978343;28;97103;-53
2023/12/07 11:06:27;;;;;;;18.03;12.77;;;;;;;3.20;66.57;101770.91;4973055;28;97541;-53
2023/12/07 11:08:59;;;;;;;19.03;13.03;;;;;;;3.25;66.42;101773.06;4976745;28;98079;-53
2023/12/07 11:11:45;;;;;;;30.30;13.30;;;;;;;3.26;66.76;101774.63;4979504;28;96781;-53